createdAt,value
2022-12-11T00:04:19.822Z,98.97
2022-12-11T00:09:21.341Z,93.05
2022-12-11T00:14:22.769Z,91.60
2022-12-11T00:19:24.210Z,85.63
2022-12-11T00:24:25.639Z,92.05
2022-12-11T00:29:26.957Z,89.18
2022-12-11T00:34:30.006Z,80.18
2022-12-11T00:39:31.370Z,85.35
2022-12-11T00:44:32.692Z,85.88
2022-12-11T00:49:34.050Z,74.85
2022-12-11T00:54:35.500Z,67.80
2022-12-11T00:59:36.937Z,68.15
2022-12-11T01:04:38.334Z,60.67
2022-12-11T01:09:58.551Z,60.30
2022-12-11T01:14:59.976Z,65.47
2022-12-11T01:20:01.379Z,61.22
2022-12-11T01:25:02.840Z,63.72
2022-12-11T01:30:05.438Z,64.57
2022-12-11T01:35:08.047Z,67.75
2022-12-11T01:40:09.872Z,72.15
2022-12-11T01:45:13.967Z,76.97
2022-12-11T01:50:15.843Z,75.00
2022-12-11T01:55:18.275Z,69.80
2022-12-11T02:00:20.507Z,77.38
2022-12-11T02:05:21.924Z,70.93
2022-12-11T02:10:27.048Z,71.55
2022-12-11T02:15:35.796Z,71.13
2022-12-11T02:20:55.765Z,65.45
2022-12-11T02:26:09.138Z,69.63
2022-12-11T02:31:13.998Z,62.08
2022-12-11T02:36:16.858Z,64.18
2022-12-11T02:41:19.505Z,62.25
2022-12-11T02:46:21.819Z,56.67
2022-12-11T02:51:29.202Z,60.97
2022-12-11T02:56:34.587Z,68.60
2022-12-11T03:01:36.059Z,63.38
2022-12-11T03:06:41.020Z,64.18
2022-12-11T03:11:42.414Z,66.07
2022-12-11T03:16:59.149Z,72.28
2022-12-11T03:22:03.835Z,70.25
2022-12-11T03:27:11.326Z,66.25
2022-12-11T03:32:14.283Z,72.65
2022-12-11T03:37:16.708Z,64.68
2022-12-11T03:42:19.021Z,59.40
2022-12-11T03:47:22.764Z,59.80
2022-12-11T03:52:27.319Z,66.57
2022-12-11T03:57:30.457Z,66.78
2022-12-11T04:02:31.816Z,67.15
2022-12-11T04:07:33.181Z,63.67
2022-12-11T04:12:34.552Z,59.78
2022-12-11T04:17:55.018Z,68.57
2022-12-11T04:23:15.206Z,63.15
2022-12-11T04:33:18.026Z,65.25
2022-12-11T04:38:19.387Z,66.13
2022-12-11T04:43:20.769Z,63.25
2022-12-11T04:48:22.182Z,65.72
2022-12-11T04:53:23.798Z,61.75
2022-12-11T04:58:25.464Z,64.05
2022-12-11T05:03:26.847Z,58.08
2022-12-11T05:08:28.797Z,63.70
2022-12-11T05:13:30.537Z,61.30
2022-12-11T05:18:31.926Z,60.40
2022-12-11T05:23:33.749Z,58.60
2022-12-11T05:28:36.622Z,61.05
2022-12-11T05:33:38.112Z,64.55
2022-12-11T05:38:39.454Z,59.60
2022-12-11T05:43:40.877Z,59.92
2022-12-11T05:48:42.781Z,50.50
2022-12-11T05:53:44.921Z,51.60
2022-12-11T05:58:47.699Z,50.22
2022-12-11T06:03:49.110Z,54.67
2022-12-11T06:08:51.232Z,54.55
2022-12-11T06:13:53.184Z,62.58
2022-12-11T06:18:57.971Z,58.20
2022-12-11T06:24:00.986Z,61.55
2022-12-11T06:29:06.349Z,56.33
2022-12-11T06:34:12.381Z,49.70
2022-12-11T06:39:13.746Z,48.17
2022-12-11T06:44:15.100Z,51.00
2022-12-11T06:49:16.462Z,55.28
2022-12-11T06:54:17.796Z,53.38
2022-12-11T06:59:19.241Z,53.40
2022-12-11T07:04:24.723Z,56.08
2022-12-11T07:09:26.125Z,56.92
2022-12-11T07:14:27.583Z,55.35
2022-12-11T07:19:29.139Z,63.28
2022-12-11T07:24:30.492Z,54.70
2022-12-11T07:29:31.929Z,62.78
2022-12-11T07:34:33.400Z,56.15
2022-12-11T07:39:34.821Z,65.25
2022-12-11T07:44:36.168Z,60.65
2022-12-11T07:49:38.297Z,60.20
2022-12-11T07:54:39.795Z,59.00
2022-12-11T07:59:41.881Z,55.05
2022-12-11T08:04:43.392Z,61.47
2022-12-11T08:09:44.793Z,60.03
2022-12-11T08:14:46.187Z,58.28
2022-12-11T08:19:47.581Z,62.28
2022-12-11T08:24:48.944Z,56.80
2022-12-11T08:29:50.369Z,58.00
2022-12-11T08:34:51.972Z,52.72
2022-12-11T08:39:53.334Z,57.35
2022-12-11T08:44:54.678Z,54.47
2022-12-11T08:49:56.837Z,49.75
2022-12-11T08:54:58.381Z,49.53
2022-12-11T08:59:59.782Z,55.50
2022-12-11T09:05:01.182Z,49.35
2022-12-11T09:10:02.882Z,45.75
2022-12-11T09:15:04.804Z,47.50
2022-12-11T09:20:06.511Z,44.47
2022-12-11T09:25:08.476Z,47.42
2022-12-11T09:30:10.075Z,47.15
2022-12-11T09:35:11.740Z,46.35
2022-12-11T09:40:13.840Z,48.70
2022-12-11T09:45:16.015Z,49.40
2022-12-11T09:50:24.727Z,41.95
2022-12-11T09:55:31.566Z,48.38
2022-12-11T10:00:47.195Z,49.90
2022-12-11T10:06:07.300Z,51.40
2022-12-11T10:11:38.924Z,51.60
2022-12-11T10:16:42.934Z,44.97
2022-12-11T10:21:45.608Z,44.42
2022-12-11T10:26:47.158Z,47.63
2022-12-11T10:31:56.506Z,46.63
2022-12-11T10:37:00.529Z,51.70
2022-12-11T10:42:13.793Z,52.15
2022-12-11T10:47:18.201Z,49.72
2022-12-11T10:52:23.932Z,48.90
2022-12-11T10:57:29.744Z,51.38
2022-12-11T11:02:35.248Z,53.15
2022-12-11T11:07:36.774Z,49.20
2022-12-11T11:12:40.959Z,46.83
2022-12-11T11:17:52.949Z,48.17
2022-12-11T11:22:57.454Z,41.70
2022-12-11T11:28:01.045Z,42.63
2022-12-11T11:33:11.053Z,39.03
2022-12-11T11:38:19.576Z,38.63
2022-12-11T11:43:39.035Z,33.83
2022-12-11T11:48:41.780Z,34.23
2022-12-11T11:53:46.488Z,29.02
2022-12-11T11:58:52.157Z,31.98
2022-12-11T12:03:53.848Z,31.15
2022-12-11T12:09:06.058Z,31.33
2022-12-11T12:14:29.189Z,33.92
2022-12-11T12:19:31.958Z,36.95
2022-12-11T12:24:59.504Z,32.28
2022-12-11T12:30:03.998Z,37.95
2022-12-11T12:35:08.283Z,43.40
2022-12-11T12:40:13.265Z,44.92
2022-12-11T12:45:14.882Z,43.00
2022-12-11T12:50:17.887Z,45.03
2022-12-11T12:55:22.907Z,51.03
2022-12-11T13:00:35.562Z,55.83
2022-12-11T13:05:37.770Z,62.28
2022-12-11T13:10:41.480Z,54.78
2022-12-11T13:15:43.955Z,54.00
2022-12-11T13:20:51.069Z,61.85
2022-12-11T13:25:57.119Z,64.30
2022-12-11T13:31:01.266Z,64.93
2022-12-11T13:36:14.943Z,54.67
2022-12-11T13:41:18.580Z,53.10
2022-12-11T13:46:22.854Z,54.42
2022-12-11T13:51:25.859Z,50.47
2022-12-11T13:56:27.237Z,49.58
2022-12-11T14:01:31.442Z,51.67
2022-12-11T14:06:33.974Z,55.65
2022-12-11T14:11:40.206Z,58.97
2022-12-11T14:16:42.362Z,55.22
2022-12-11T14:21:44.226Z,59.95
2022-12-11T14:26:50.312Z,61.50
2022-12-11T14:31:52.151Z,58.00
2022-12-11T14:36:54.369Z,59.17
2022-12-11T14:42:09.105Z,58.03
2022-12-11T14:47:14.279Z,58.20
2022-12-11T14:52:18.176Z,58.08
2022-12-11T14:57:22.864Z,57.60
2022-12-11T15:02:27.360Z,58.75
2022-12-11T15:07:28.891Z,59.60
2022-12-11T15:12:30.449Z,60.97
2022-12-11T15:17:34.569Z,52.17
2022-12-11T15:22:36.196Z,53.30
2022-12-11T15:27:38.635Z,57.38
2022-12-11T15:32:40.125Z,54.40
2022-12-11T15:37:51.764Z,54.20
2022-12-11T15:42:54.890Z,57.47
2022-12-11T15:47:56.372Z,54.42
2022-12-11T15:52:58.240Z,58.42
2022-12-11T15:58:01.278Z,49.63
2022-12-11T16:03:02.856Z,50.33
2022-12-11T16:08:04.417Z,51.45
2022-12-11T16:13:05.839Z,49.03
2022-12-11T16:18:09.002Z,48.30
2022-12-11T16:23:11.148Z,48.60
2022-12-11T16:28:14.101Z,53.63
2022-12-11T16:33:16.002Z,49.88
2022-12-11T16:38:17.921Z,53.70
2022-12-11T16:43:19.460Z,60.45
2022-12-11T16:48:20.865Z,54.72
2022-12-11T16:53:22.218Z,57.85
2022-12-11T16:58:23.672Z,63.75
2022-12-11T17:03:25.083Z,60.92
2022-12-11T17:08:26.533Z,59.63
2022-12-11T17:13:32.936Z,58.38
2022-12-11T17:18:37.475Z,64.53
2022-12-11T17:23:39.465Z,65.78
2022-12-11T17:28:40.841Z,62.40
2022-12-11T17:33:42.659Z,58.58
2022-12-11T17:38:44.450Z,62.30
2022-12-11T17:43:45.870Z,58.65
2022-12-11T17:48:47.548Z,57.15
2022-12-11T17:53:49.131Z,53.70
2022-12-11T17:58:50.677Z,61.38
2022-12-11T18:03:53.936Z,57.65
2022-12-11T18:08:55.385Z,56.88
2022-12-11T18:13:56.827Z,55.22
2022-12-11T18:18:58.258Z,54.95
2022-12-11T18:24:00.038Z,63.72
2022-12-11T18:29:01.484Z,61.58
2022-12-11T18:34:03.299Z,60.25
2022-12-11T18:39:04.717Z,61.47
2022-12-11T18:44:09.731Z,60.63
2022-12-11T18:49:11.563Z,64.60
2022-12-11T18:54:12.953Z,57.42
2022-12-11T18:59:14.430Z,61.92
2022-12-11T19:04:15.837Z,61.85
2022-12-11T19:09:17.725Z,66.72
2022-12-11T19:14:19.063Z,66.70
2022-12-11T19:19:22.058Z,66.93
2022-12-11T19:24:24.081Z,74.93
2022-12-11T19:29:26.873Z,69.55
2022-12-11T19:34:28.596Z,73.00
2022-12-11T19:39:29.994Z,74.18
2022-12-11T19:44:31.657Z,71.85
2022-12-11T19:49:33.139Z,73.00
2022-12-11T19:54:34.569Z,69.63
2022-12-11T19:59:35.994Z,71.63
2022-12-11T20:04:37.377Z,76.85
2022-12-11T20:09:38.720Z,74.45
2022-12-11T20:14:40.208Z,76.20
2022-12-11T20:19:42.080Z,71.38
2022-12-11T20:24:43.572Z,64.25
2022-12-11T20:29:45.064Z,55.45
2022-12-11T20:34:46.457Z,57.90
2022-12-11T20:39:47.887Z,56.88
2022-12-11T20:44:49.848Z,58.63
2022-12-11T20:49:51.876Z,56.03
2022-12-11T20:54:53.371Z,57.35
2022-12-11T20:59:54.751Z,54.10
2022-12-11T21:04:56.628Z,60.13
2022-12-11T21:09:58.088Z,51.08
2022-12-11T21:14:59.525Z,57.47
2022-12-11T21:20:01.390Z,53.65
2022-12-11T21:25:02.984Z,55.85
2022-12-11T21:30:05.212Z,57.05
2022-12-11T21:35:07.003Z,50.17
2022-12-11T21:40:09.304Z,52.97
2022-12-11T21:45:59.385Z,50.22
2022-12-11T21:50:32.399Z,50.50
2022-12-11T21:55:33.778Z,54.03
2022-12-11T22:00:36.321Z,48.78
2022-12-11T22:05:37.729Z,49.38
2022-12-11T22:10:39.190Z,55.20
2022-12-11T22:15:40.615Z,48.65
2022-12-11T22:20:42.396Z,52.83
2022-12-11T22:25:43.789Z,48.30
2022-12-11T22:30:45.685Z,50.90
2022-12-11T22:35:47.143Z,59.72
2022-12-11T22:40:48.636Z,58.90
2022-12-11T22:45:50.070Z,55.72
2022-12-11T22:50:51.461Z,52.97
2022-12-11T22:55:52.906Z,51.10
2022-12-11T23:00:54.408Z,55.53
2022-12-11T23:05:55.765Z,50.55
2022-12-11T23:10:57.120Z,46.38
2022-12-11T23:15:58.494Z,44.60
2022-12-11T23:20:59.901Z,46.83
2022-12-11T23:26:01.614Z,42.75
2022-12-11T23:31:03.143Z,46.05
2022-12-11T23:36:05.089Z,38.72
2022-12-11T23:41:07.357Z,45.38
2022-12-11T23:46:11.659Z,41.65
2022-12-11T23:51:14.433Z,42.60
2022-12-11T23:56:23.437Z,43.15
